Noruega — CSDJ — position and weather

sailwx.info

Track history (hours):
 
Tides and Currents Weather Stations Pressure Air Temp Water Temp Dewpoint Dewpoint Depression Visibility Wind Speed Wind Dir Waves Ship Positions

Oceanographic research ship Noruega (Portugal)

Detailed information on ship capabilities available from University of Delaware's Ocean Information Center.

Last reported at 2019-Feb-14 00:17 UTC. Time now 2019-Feb-21 11:59 UTC.
Position N 39°36' W 009°49'.

Length 47 m; draft 5.2 m.

Type: Neutral ship in war zone. MMSI: 263601000.

Date/timePositionNaut miles runAvg speedWind from/ knotsBaromVisibWave heightAir tempDewpointWater temp
2019-Feb-14 00:17N 39°36' W 009°49'7 3.9
2019-Feb-13 22:31N 39°36' W 009°40'0 0.5
2019-Feb-13 22:24N 39°36' W 009°40'9 5.1
2019-Feb-13 20:41N 39°36' W 009°29'0 2.9
2019-Feb-13 20:30N 39°36' W 009°28'2 4.7
2019-Feb-13 20:00N 39°36' W 009°25'2 4.1
2019-Feb-13 19:31N 39°36' W 009°22'4 3.4
2019-Feb-13 18:22N 39°36' W 009°17'1 2.8
2019-Feb-13 18:01N 39°36' W 009°16'2 4.7
2019-Feb-13 17:31N 39°36' W 009°13'10 3.0
2019-Feb-13 14:11N 39°28' W 009°22'2 7.7
2019-Feb-13 13:58N 39°27' W 009°23'2 2.8
2019-Feb-13 13:09N 39°27' W 009°26'1 0.6
2019-Feb-13 10:51N 39°26' W 009°25'2 6.4
2019-Feb-13 10:30N 39°24' W 009°26'2 3.9
2019-Feb-13 10:00N 39°23' W 009°27'3 6.8
2019-Feb-13 09:30N 39°19' W 009°28'0 0.6
2019-Feb-13 09:00N 39°19' W 009°28'1 3.0
2019-Feb-13 08:30N 39°18' W 009°28'2 2.9
2019-Feb-13 07:57N 39°20' W 009°28'0 0.4
2019-Feb-13 07:05N 39°19' W 009°28'0 2.3
2019-Feb-13 07:00N 39°19' W 009°28'2 3.5
2019-Feb-13 06:30N 39°17' W 009°28'2 3.4
2019-Feb-13 06:00N 39°16' W 009°29'3 6.8
2019-Feb-13 05:31N 39°13' W 009°30'4 7.5
2019-Feb-13 05:01N 39°10' W 009°33'4 7.4
2019-Feb-13 04:31N 39°06' W 009°35'4 7.2
2019-Feb-13 04:01N 39°03' W 009°37'4 7.4
2019-Feb-13 03:31N 38°59' W 009°39'4 7.2
2019-Feb-13 03:01N 38°56' W 009°41'3 6.8
2019-Feb-13 02:31N 38°53' W 009°42'3 5.7
2019-Feb-13 02:01N 38°50' W 009°42'3 6.0
2019-Feb-13 01:31N 38°47' W 009°42'3 6.0
2019-Feb-13 01:00N 38°44' W 009°41'3 6.1
2019-Feb-13 00:30N 38°41' W 009°41'3 5.2
2019-Feb-13 00:00N 38°39' W 009°39'3 5.9
2019-Feb-12 23:30N 38°39' W 009°35'3 6.0
2019-Feb-12 23:00N 38°38' W 009°32'3 5.9
2019-Feb-12 22:31N 38°38' W 009°28'3 6.0
2019-Feb-12 21:58N 38°37' W 009°24'3 5.9
2019-Feb-12 21:25N 38°39' W 009°20'3 6.4
2019-Feb-12 21:00N 38°41' W 009°18'3 5.1
2019-Feb-12 20:30N 38°41' W 009°15'1 1.8
2019-Feb-12 19:56N 38°42' W 009°14'0 0.0
2019-Feb-12 19:27N 38°42' W 009°14'0 0.0
2019-Feb-12 18:59N 38°42' W 009°14'0 0.0
2019-Feb-12 18:16N 38°42' W 009°14'0 0.0
2019-Feb-12 17:57N 38°42' W 009°14'0 0.0
2019-Feb-12 17:27N 38°42' W 009°14'0 0.0
2019-Feb-12 17:00N 38°42' W 009°14'0 0.0
2019-Feb-12 16:29N 38°42' W 009°14'0 0.0
2019-Feb-12 15:52N 38°42' W 009°14'0 0.0
2019-Feb-12 15:24N 38°42' W 009°14'0 0.0
2019-Feb-12 14:59N 38°42' W 009°14'0 0.0
2019-Feb-12 14:30N 38°42' W 009°14'0 0.0
2019-Feb-12 13:59N 38°42' W 009°14'0 0.0
2019-Feb-12 13:19N 38°42' W 009°14'0 0.0
2019-Feb-12 12:55N 38°42' W 009°14'0 0.0
2019-Feb-12 12:29N 38°42' W 009°14'0 0.0
2019-Feb-12 12:01N 38°42' W 009°14'0 0.0
2019-Feb-12 11:23N 38°42' W 009°14'0 0.0
2019-Feb-12 11:00N 38°42' W 009°14'0 0.0
2019-Feb-12 10:28N 38°42' W 009°14'0 0.0
2019-Feb-12 09:59N 38°42' W 009°14'0 0.0
2019-Feb-12 09:30N 38°42' W 009°14'0 0.0
2019-Feb-12 08:58N 38°42' W 009°14'0 0.0
2019-Feb-12 08:29N 38°42' W 009°14'0 0.0
2019-Feb-12 07:59N 38°42' W 009°14'0 0.0
2019-Feb-12 07:26N 38°42' W 009°14'0 0.0
2019-Feb-12 07:00N 38°42' W 009°14'0 0.0
2019-Feb-12 06:30N 38°42' W 009°14'0 0.0
2019-Feb-12 06:00N 38°42' W 009°14'0 0.0
2019-Feb-12 05:30N 38°42' W 009°14'0 0.0
2019-Feb-12 05:00N 38°42' W 009°14'0 0.0
2019-Feb-12 04:28N 38°42' W 009°14'0 0.0
2019-Feb-12 03:47N 38°42' W 009°14'0 0.0
2019-Feb-12 03:30N 38°42' W 009°14'0 0.0
2019-Feb-12 03:01N 38°42' W 009°14'0 0.0
2019-Feb-12 02:25N 38°42' W 009°14'0 0.0
2019-Feb-12 01:59N 38°42' W 009°14'0 0.0
2019-Feb-12 01:30N 38°42' W 009°14'0 0.0
2019-Feb-12 00:58N 38°42' W 009°14'0 0.0
2019-Feb-12 00:29N 38°42' W 009°14'0 0.0
2019-Feb-11 23:57N 38°42' W 009°14'0 0.0
2019-Feb-11 23:29N 38°42' W 009°14'0 0.0
2019-Feb-11 23:00N 38°42' W 009°14'0 0.0
2019-Feb-11 22:31N 38°42' W 009°14'0 0.0
2019-Feb-11 21:59N 38°42' W 009°14'0 0.0
2019-Feb-11 21:28N 38°42' W 009°14'0 0.0
2019-Feb-11 20:57N 38°42' W 009°14'0 0.0
2019-Feb-11 20:29N 38°42' W 009°14'0 0.0
2019-Feb-11 19:54N 38°42' W 009°14'0 0.0
2019-Feb-11 19:28N 38°42' W 009°14'0 0.0
2019-Feb-11 19:00N 38°42' W 009°14'0 0.0
2019-Feb-11 18:30N 38°42' W 009°14'0 0.0
2019-Feb-11 17:59N 38°42' W 009°14'0 0.0
2019-Feb-11 17:25N 38°42' W 009°14'0 0.0
2019-Feb-11 16:54N 38°42' W 009°14'0 0.0
2019-Feb-11 16:27N 38°42' W 009°14'0 0.0
2019-Feb-11 16:01N 38°42' W 009°14'0 0.0
2019-Feb-11 15:30N 38°42' W 009°14'0 0.0
2019-Feb-11 15:00N 38°42' W 009°14'0 0.0
2019-Feb-11 14:30N 38°42' W 009°14'0 0.0
2019-Feb-11 14:00N 38°42' W 009°14'0 0.0
2019-Feb-11 13:26N 38°42' W 009°14'0 0.0
2019-Feb-11 13:00N 38°42' W 009°14'0 0.0
2019-Feb-11 12:30N 38°42' W 009°14'0 0.0
2019-Feb-11 11:58N 38°42' W 009°14'0 0.0
2019-Feb-11 11:29N 38°42' W 009°14'0 0.0
2019-Feb-11 11:00N 38°42' W 009°14'0 0.0
2019-Feb-11 10:30N 38°42' W 009°14'0 0.0
2019-Feb-11 09:55N 38°42' W 009°14'0 0.0
2019-Feb-11 09:26N 38°42' W 009°14'0 0.0
2019-Feb-11 08:58N 38°42' W 009°14'0 0.0
2019-Feb-11 08:29N 38°42' W 009°14'0 0.0
2019-Feb-11 08:00N 38°42' W 009°14'0 0.0
2019-Feb-11 07:29N 38°42' W 009°14'0 0.0
2019-Feb-11 07:00N 38°42' W 009°14'1 1.9
2019-Feb-11 06:30N 38°41' W 009°14'0 0.6
2019-Feb-11 05:59N 38°41' W 009°14'1 1.2
2019-Feb-11 05:26N 38°41' W 009°14'2 4.4
2019-Feb-11 05:00N 38°41' W 009°17'4 6.8
2019-Feb-11 04:27N 38°39' W 009°20'2 5.5
2019-Feb-11 04:00N 38°37' W 009°23'2 4.9
2019-Feb-11 03:30N 38°37' W 009°26'3 5.3
2019-Feb-11 03:00N 38°37' W 009°29'3 5.4
2019-Feb-11 02:30N 38°38' W 009°33'3 5.4
2019-Feb-11 02:00N 38°38' W 009°36'3 5.5
2019-Feb-11 01:30N 38°39' W 009°39'2 4.7
2019-Feb-11 01:00N 38°41' W 009°41'3 5.5
2019-Feb-11 00:31N 38°44' W 009°41'3 5.6
2019-Feb-11 00:00N 38°47' W 009°42'3 5.7
2019-Feb-10 23:31N 38°50' W 009°42'3 5.7
2019-Feb-10 23:00N 38°52' W 009°42'3 5.9
2019-Feb-10 22:31N 38°55' W 009°41'3 5.6
2019-Feb-10 22:00N 38°58' W 009°39'3 5.8
2019-Feb-10 21:30N 39°00' W 009°38'3 5.8
2019-Feb-10 21:00N 39°03' W 009°36'3 6.4
2019-Feb-10 20:30N 39°06' W 009°34'3 6.6
2019-Feb-10 20:00N 39°09' W 009°33'3 6.5
2019-Feb-10 19:31N 39°12' W 009°31'3 6.4
2019-Feb-10 18:58N 39°15' W 009°29'11 6.1
2019-Feb-10 17:15N 39°24' W 009°22'15 3.8
2019-Feb-10 13:18N 39°24' W 009°41'2 3.6
2019-Feb-10 12:37N 39°24' W 009°44'0 2.7
2019-Feb-10 12:31N 39°24' W 009°44'4 7.4
2019-Feb-10 12:00N 39°20' W 009°46'1 2.5
2019-Feb-10 11:29N 39°19' W 009°47'2 3.6
2019-Feb-10 10:56N 39°17' W 009°48'6 0.5
2019-Feb-09 22:43N 39°12' W 009°50'2 6.5
2019-Feb-09 22:21N 39°12' W 009°47'1 2.6
2019-Feb-09 21:58N 39°12' W 009°46'2 4.2
2019-Feb-09 21:30N 39°12' W 009°43'2 4.1
2019-Feb-09 21:00N 39°12' W 009°41'2 4.8
2019-Feb-09 20:29N 39°12' W 009°37'2 4.2
2019-Feb-09 20:01N 39°12' W 009°35'2 4.3
2019-Feb-09 19:30N 39°12' W 009°32'2 4.3
2019-Feb-09 18:58N 39°12' W 009°29'2 4.9
2019-Feb-09 18:30N 39°12' W 009°26'2 4.7
2019-Feb-09 18:00N 39°12' W 009°23'4 7.6
2019-Feb-09 17:30N 39°09' W 009°25'4 8.5
2019-Feb-09 17:00N 39°05' W 009°27'4 8.2
2019-Feb-09 16:30N 39°01' W 009°27'2 3.9
2019-Feb-09 16:00N 39°00' W 009°29'2 4.6
2019-Feb-09 15:30N 39°00' W 009°32'2 4.7
2019-Feb-09 15:00N 39°00' W 009°35'2 4.6
2019-Feb-09 14:30N 39°00' W 009°38'3 5.6
2019-Feb-09 14:00N 38°58' W 009°35'2 4.8
2019-Feb-09 13:30N 38°58' W 009°32'1 2.1
2019-Feb-09 13:00N 38°57' W 009°32'3 6.0
2019-Feb-09 12:30N 38°54' W 009°34'4 7.8
2019-Feb-09 12:01N 38°54' W 009°39'2 4.0
2019-Feb-09 11:30N 38°54' W 009°41'1 2.7
2019-Feb-09 11:00N 38°55' W 009°40'1 1.5
2019-Feb-09 10:30N 38°56' W 009°39'2 5.0
2019-Feb-09 10:01N 38°54' W 009°42'3 6.3
2019-Feb-09 09:31N 38°57' W 009°40'3 6.0
2019-Feb-09 09:00N 39°00' W 009°41'2 4.7
2019-Feb-09 08:30N 39°00' W 009°44'2 4.5
2019-Feb-09 08:00N 38°60' W 009°47'2 4.7
2019-Feb-09 07:30N 39°00' W 009°50'2 4.6
2019-Feb-09 07:00N 39°00' W 009°53'2 4.4
2019-Feb-09 06:30N 38°60' W 009°56'2 3.9
2019-Feb-09 06:00N 39°00' W 009°58'3 4.1
2019-Feb-09 05:20N 39°00' W 010°02'2 3.9
2019-Feb-09 04:45N 39°00' W 010°05'0 0.7
2019-Feb-09 04:30N 39°00' W 010°05'2 4.9
2019-Feb-09 04:00N 39°00' W 010°08'5 3.4
2019-Feb-09 02:39N 39°00' W 010°14'13 5.0
2019-Feb-09 00:04N 38°48' W 010°08'1 6.6
2019-Feb-08 23:50N 38°48' W 010°06'1 2.7
2019-Feb-08 23:26N 38°48' W 010°05'2 4.9
2019-Feb-08 23:00N 38°48' W 010°02'1 1.6
2019-Feb-08 22:30N 38°48' W 010°01'2 3.9
2019-Feb-08 22:01N 38°48' W 009°59'2 4.0
2019-Feb-08 21:30N 38°48' W 009°56'2 4.8
2019-Feb-08 21:00N 38°48' W 009°53'2 4.7
2019-Feb-08 20:30N 38°48' W 009°50'3 5.2
2019-Feb-08 20:00N 38°48' W 009°47'2 4.4
2019-Feb-08 19:31N 38°48' W 009°44'2 4.5
2019-Feb-08 19:00N 38°48' W 009°41'2 4.5
2019-Feb-08 18:30N 38°48' W 009°38'2 4.7
2019-Feb-08 18:00N 38°48' W 009°35'2 4.6
2019-Feb-08 17:30N 38°48' W 009°32'3 7.0
2019-Feb-08 17:01N 38°46' W 009°36'1 2.9
2019-Feb-08 16:30N 38°47' W 009°37'2 3.2
2019-Feb-08 16:01N 38°48' W 009°39'1 2.4
2019-Feb-08 15:30N 38°47' W 009°38'4 7.1
2019-Feb-08 15:01N 38°44' W 009°35'4 7.5
2019-Feb-08 14:31N 38°41' W 009°34'4 7.3
2019-Feb-08 14:00N 38°37' W 009°32'4 7.2
2019-Feb-08 13:31N 38°34' W 009°30'3 6.6
2019-Feb-08 13:00N 38°31' W 009°28'1 2.6
2019-Feb-08 12:30N 38°30' W 009°27'1 3.0
2019-Feb-08 12:00N 38°29' W 009°25'3 5.7
2019-Feb-08 11:30N 38°32' W 009°26'4 7.5
2019-Feb-08 11:01N 38°33' W 009°22'4 7.6
2019-Feb-08 10:28N 38°35' W 009°17'0 0.6
2019-Feb-08 09:59N 38°35' W 009°18'0 0.7
2019-Feb-08 09:30N 38°35' W 009°17'3 5.2
2019-Feb-08 09:00N 38°34' W 009°15'1 2.2
2019-Feb-08 08:28N 38°34' W 009°16'2 4.3
2019-Feb-08 08:00N 38°36' W 009°14'2 4.6
2019-Feb-08 07:30N 38°36' W 009°17'3 5.5
2019-Feb-08 06:59N 38°36' W 009°21'3 5.9
2019-Feb-08 06:30N 38°36' W 009°24'2 4.6
2019-Feb-08 06:01N 38°36' W 009°27'2 4.6
2019-Feb-08 05:30N 38°36' W 009°30'2 3.9
2019-Feb-08 05:01N 38°36' W 009°33'2 4.3
2019-Feb-08 04:30N 38°36' W 009°35'2 4.1
2019-Feb-08 04:00N 38°36' W 009°38'2 4.7
2019-Feb-08 03:30N 38°36' W 009°41'2 4.5
2019-Feb-08 03:01N 38°36' W 009°44'2 4.5
2019-Feb-08 02:31N 38°36' W 009°47'2 3.7
2019-Feb-08 02:00N 38°35' W 009°49'1 1.5
2019-Feb-08 01:30N 38°36' W 009°49'3 6.8
2019-Feb-08 01:00N 38°33' W 009°46'3 6.7
2019-Feb-08 00:30N 38°31' W 009°42'3 6.7
2019-Feb-08 00:00N 38°29' W 009°39'4 7.1
2019-Feb-07 23:30N 38°27' W 009°35'4 7.1
2019-Feb-07 22:56N 38°25' W 009°31'2 4.0
2019-Feb-07 22:30N 38°24' W 009°29'2 4.8
2019-Feb-07 22:00N 38°24' W 009°26'2 4.7
2019-Feb-07 21:30N 38°24' W 009°23'2 4.8
2019-Feb-07 21:00N 38°24' W 009°20'2 4.1
2019-Feb-07 20:29N 38°24' W 009°17'2 4.6
2019-Feb-07 20:00N 38°24' W 009°14'2 3.5
2019-Feb-07 19:30N 38°24' W 009°12'2 4.5
2019-Feb-07 19:00N 38°24' W 009°09'2 4.7
2019-Feb-07 18:29N 38°24' W 009°06'2 4.7
2019-Feb-07 18:00N 38°24' W 009°03'2 4.9
2019-Feb-07 17:30N 38°24' W 009°00'3 5.0
2019-Feb-07 16:59N 38°24' W 008°57'1 1.4
2019-Feb-07 16:30N 38°24' W 008°56'3 5.4
2019-Feb-07 15:55N 38°24' W 008°52'1 2.3
2019-Feb-07 15:29N 38°23' W 008°51'4 8.4
2019-Feb-07 15:00N 38°21' W 008°55'3 6.3
2019-Feb-07 14:31N 38°19' W 008°58'2 3.3
2019-Feb-07 14:00N 38°19' W 008°60'3 6.9
2019-Feb-07 13:30N 38°17' W 008°56'4 7.8
2019-Feb-07 13:00N 38°15' W 008°52'4 7.7
2019-Feb-07 12:30N 38°13' W 008°48'2 4.6
2019-Feb-07 12:00N 38°11' W 008°49'1 3.0
2019-Feb-07 11:30N 38°09' W 008°49'1 1.0
2019-Feb-07 11:01N 38°10' W 008°49'4 6.9
2019-Feb-07 10:29N 38°13' W 008°52'4 7.9
2019-Feb-07 10:00N 38°14' W 008°56'2 3.9
2019-Feb-07 09:31N 38°14' W 008°59'1 2.9
2019-Feb-07 09:00N 38°13' W 009°00'0 0.8
2019-Feb-07 08:30N 38°13' W 009°00'3 5.3
2019-Feb-07 08:00N 38°15' W 008°59'2 3.2
2019-Feb-07 07:30N 38°14' W 008°60'3 5.4
2019-Feb-07 07:01N 38°16' W 008°57'4 7.6
2019-Feb-07 06:30N 38°14' W 008°53'1 2.5
2019-Feb-07 06:00N 38°13' W 008°52'2 4.7
2019-Feb-07 05:30N 38°13' W 008°55'2 4.2
2019-Feb-07 05:00N 38°13' W 008°57'2 4.3
2019-Feb-07 04:30N 38°13' W 009°00'2 4.4
2019-Feb-07 04:00N 38°13' W 009°03'2 4.8
2019-Feb-07 03:30N 38°13' W 009°06'2 4.6
2019-Feb-07 03:00N 38°13' W 009°09'2 3.5
2019-Feb-07 02:29N 38°13' W 009°11'1 2.7
2019-Feb-07 02:00N 38°13' W 009°13'2 3.3
2019-Feb-07 01:30N 38°13' W 009°15'4 7.5
2019-Feb-07 01:00N 38°09' W 009°15'3 5.4
2019-Feb-07 00:30N 38°07' W 009°16'4 7.4
2019-Feb-07 00:00N 38°03' W 009°16'2 4.0
2019-Feb-06 23:30N 38°01' W 009°17'2 4.9
2019-Feb-06 23:00N 38°01' W 009°14'2 4.8
2019-Feb-06 22:30N 38°01' W 009°11'2 4.6
2019-Feb-06 22:00N 38°01' W 009°08'2 4.1
2019-Feb-06 21:31N 38°01' W 009°05'2 4.4
2019-Feb-06 21:00N 38°01' W 009°02'2 4.7
2019-Feb-06 20:31N 38°01' W 008°60'2 4.9
2019-Feb-06 20:01N 38°01' W 008°56'2 4.5
2019-Feb-06 19:30N 38°01' W 008°54'2 3.5
2019-Feb-06 19:01N 37°59' W 008°54'4 7.5
2019-Feb-06 18:30N 37°56' W 008°54'4 7.7
2019-Feb-06 18:00N 37°52' W 008°52'3 6.8
2019-Feb-06 17:31N 37°49' W 008°50'2 4.7
2019-Feb-06 17:01N 37°49' W 008°53'2 4.8
2019-Feb-06 16:31N 37°49' W 008°56'2 3.9
2019-Feb-06 16:00N 37°49' W 008°59'1 1.4
2019-Feb-06 15:31N 37°49' W 008°59'1 2.3
2019-Feb-06 15:00N 37°47' W 008°58'2 3.1
2019-Feb-06 14:30N 37°46' W 008°58'2 3.8
2019-Feb-06 14:00N 37°44' W 008°58'4 7.0
2019-Feb-06 13:30N 37°47' W 008°58'4 8.1
2019-Feb-06 13:00N 37°51' W 009°00'2 4.5
2019-Feb-06 12:30N 37°53' W 009°01'2 3.2
2019-Feb-06 12:01N 37°55' W 009°01'1 1.3
2019-Feb-06 11:30N 37°56' W 009°01'4 7.5
2019-Feb-06 11:00N 37°52' W 009°01'4 7.7
2019-Feb-06 10:30N 37°48' W 008°60'2 4.5
2019-Feb-06 10:00N 37°47' W 009°03'1 2.7
2019-Feb-06 09:30N 37°49' W 009°03'2 3.0
2019-Feb-06 09:00N 37°50' W 009°03'0 0.3
2019-Feb-06 08:30N 37°50' W 009°03'2 3.0
2019-Feb-06 08:00N 37°49' W 009°02'1 2.6
2019-Feb-06 07:30N 37°49' W 009°04'2 3.8
2019-Feb-06 07:00N 37°49' W 009°06'2 3.1
2019-Feb-06 06:30N 37°49' W 009°08'2 4.2
2019-Feb-06 06:00N 37°49' W 009°11'2 5.0
2019-Feb-06 05:30N 37°49' W 009°14'2 3.5
2019-Feb-06 05:01N 37°49' W 009°16'1 2.4
2019-Feb-06 04:30N 37°48' W 009°17'4 8.3
2019-Feb-06 04:00N 37°44' W 009°17'5 8.1
2019-Feb-06 03:27N 37°39' W 009°17'2 5.4
2019-Feb-06 03:00N 37°37' W 009°17'2 4.8
2019-Feb-06 02:30N 37°37' W 009°14'2 4.0
2019-Feb-06 01:57N 37°37' W 009°11'1 2.3
2019-Feb-06 01:30N 37°37' W 009°10'1 2.9
2019-Feb-06 01:00N 37°37' W 009°08'2 4.9
2019-Feb-06 00:30N 37°37' W 009°05'2 4.5
2019-Feb-06 00:00N 37°37' W 009°02'2 4.0
2019-Feb-05 23:30N 37°37' W 008°60'3 5.1
2019-Feb-05 23:00N 37°37' W 008°56'2 4.7
2019-Feb-05 22:30N 37°37' W 008°53'3 5.2
2019-Feb-05 22:00N 37°37' W 008°50'12 7.0
2019-Feb-05 20:18N 37°25' W 008°50'1 4.6
2019-Feb-05 20:00N 37°25' W 008°52'1 2.2
2019-Feb-05 19:31N 37°25' W 008°53'7 4.8
2019-Feb-05 18:01N 37°25' W 009°02'0 0.5
2019-Feb-05 18:00N 37°25' W 009°02'3 4.0
2019-Feb-05 17:22N 37°25' W 008°59'1 2.6
2019-Feb-05 16:59N 37°26' W 008°59'3 3.7
2019-Feb-05 16:16N 37°29' W 008°59'9 4.3
2019-Feb-05 14:12N 37°25' W 009°09'13 5.9
2019-Feb-05 12:02N 37°13' W 009°14'0 1.4
2019-Feb-05 12:00N 37°13' W 009°14'2 4.3
2019-Feb-05 11:28N 37°13' W 009°11'2 4.4
2019-Feb-05 10:54N 37°13' W 009°08'2 4.5
2019-Feb-05 10:22N 37°13' W 009°05'2 3.3
2019-Feb-05 09:38N 37°15' W 009°03'26 1.6
2019-Feb-04 17:26N 36°52' W 008°48'1 0.4
2019-Feb-04 15:55N 36°52' W 008°48'4 7.6
2019-Feb-04 15:25N 36°53' W 008°43'3 7.4
2019-Feb-04 15:00N 36°55' W 008°40'4 7.4
2019-Feb-04 14:30N 36°57' W 008°37'3 6.9
2019-Feb-04 14:00N 37°00' W 008°35'4 7.1
2019-Feb-04 13:28N 36°59' W 008°39'7 3.3
2019-Feb-04 11:24N 36°57' W 008°47'3 7.4
2019-Feb-04 10:58N 36°56' W 008°43'2 3.2
2019-Feb-04 10:22N 36°58' W 008°42'11 7.4
2019-Feb-04 08:50N 36°57' W 008°56'4 4.8
2019-Feb-04 08:05N 36°58' W 008°60'18 3.4
2019-Feb-04 02:39N 36°42' W 008°49'1 3.6
2019-Feb-04 02:20N 36°42' W 008°48'3 3.9
2019-Feb-04 01:32N 36°45' W 008°48'  
Track history (hours):
 
Tides and Currents Weather Stations Pressure Air Temp Water Temp Dewpoint Dewpoint Depression Visibility Wind Speed Wind Dir Waves Ship Positions

Oceanographic research ship Noruega (Portugal)

Detailed information on ship capabilities available from University of Delaware's Ocean Information Center.

Last reported at 2019-Feb-14 00:17 UTC. Time now 2019-Feb-21 11:59 UTC.
Position N 39°36' W 009°49'.

Length 47 m; draft 5.2 m.

Type: Neutral ship in war zone. MMSI: 263601000.

Date/timePositionNaut miles runAvg speedWind from/ knotsBaromVisibWave heightAir tempDewpointWater temp
2019-Feb-14 00:17N 39°36' W 009°49'7 3.9
2019-Feb-13 22:31N 39°36' W 009°40'0 0.5
2019-Feb-13 22:24N 39°36' W 009°40'9 5.1
2019-Feb-13 20:41N 39°36' W 009°29'0 2.9
2019-Feb-13 20:30N 39°36' W 009°28'2 4.7
2019-Feb-13 20:00N 39°36' W 009°25'2 4.1
2019-Feb-13 19:31N 39°36' W 009°22'4 3.4
2019-Feb-13 18:22N 39°36' W 009°17'1 2.8
2019-Feb-13 18:01N 39°36' W 009°16'2 4.7
2019-Feb-13 17:31N 39°36' W 009°13'10 3.0
2019-Feb-13 14:11N 39°28' W 009°22'2 7.7
2019-Feb-13 13:58N 39°27' W 009°23'2 2.8
2019-Feb-13 13:09N 39°27' W 009°26'1 0.6
2019-Feb-13 10:51N 39°26' W 009°25'2 6.4
2019-Feb-13 10:30N 39°24' W 009°26'2 3.9
2019-Feb-13 10:00N 39°23' W 009°27'3 6.8
2019-Feb-13 09:30N 39°19' W 009°28'0 0.6
2019-Feb-13 09:00N 39°19' W 009°28'1 3.0
2019-Feb-13 08:30N 39°18' W 009°28'2 2.9
2019-Feb-13 07:57N 39°20' W 009°28'0 0.4
2019-Feb-13 07:05N 39°19' W 009°28'0 2.3
2019-Feb-13 07:00N 39°19' W 009°28'2 3.5
2019-Feb-13 06:30N 39°17' W 009°28'2 3.4
2019-Feb-13 06:00N 39°16' W 009°29'3 6.8
2019-Feb-13 05:31N 39°13' W 009°30'4 7.5
2019-Feb-13 05:01N 39°10' W 009°33'4 7.4
2019-Feb-13 04:31N 39°06' W 009°35'4 7.2
2019-Feb-13 04:01N 39°03' W 009°37'4 7.4
2019-Feb-13 03:31N 38°59' W 009°39'4 7.2
2019-Feb-13 03:01N 38°56' W 009°41'3 6.8
2019-Feb-13 02:31N 38°53' W 009°42'3 5.7
2019-Feb-13 02:01N 38°50' W 009°42'3 6.0
2019-Feb-13 01:31N 38°47' W 009°42'3 6.0
2019-Feb-13 01:00N 38°44' W 009°41'3 6.1
2019-Feb-13 00:30N 38°41' W 009°41'3 5.2
2019-Feb-13 00:00N 38°39' W 009°39'3 5.9
2019-Feb-12 23:30N 38°39' W 009°35'3 6.0
2019-Feb-12 23:00N 38°38' W 009°32'3 5.9
2019-Feb-12 22:31N 38°38' W 009°28'3 6.0
2019-Feb-12 21:58N 38°37' W 009°24'3 5.9
2019-Feb-12 21:25N 38°39' W 009°20'3 6.4
2019-Feb-12 21:00N 38°41' W 009°18'3 5.1
2019-Feb-12 20:30N 38°41' W 009°15'1 1.8
2019-Feb-12 19:56N 38°42' W 009°14'0 0.0
2019-Feb-12 19:27N 38°42' W 009°14'0 0.0
2019-Feb-12 18:59N 38°42' W 009°14'0 0.0
2019-Feb-12 18:16N 38°42' W 009°14'0 0.0
2019-Feb-12 17:57N 38°42' W 009°14'0 0.0
2019-Feb-12 17:27N 38°42' W 009°14'0 0.0
2019-Feb-12 17:00N 38°42' W 009°14'0 0.0
2019-Feb-12 16:29N 38°42' W 009°14'0 0.0
2019-Feb-12 15:52N 38°42' W 009°14'0 0.0
2019-Feb-12 15:24N 38°42' W 009°14'0 0.0
2019-Feb-12 14:59N 38°42' W 009°14'0 0.0
2019-Feb-12 14:30N 38°42' W 009°14'0 0.0
2019-Feb-12 13:59N 38°42' W 009°14'0 0.0
2019-Feb-12 13:19N 38°42' W 009°14'0 0.0
2019-Feb-12 12:55N 38°42' W 009°14'0 0.0
2019-Feb-12 12:29N 38°42' W 009°14'0 0.0
2019-Feb-12 12:01N 38°42' W 009°14'0 0.0
2019-Feb-12 11:23N 38°42' W 009°14'0 0.0
2019-Feb-12 11:00N 38°42' W 009°14'0 0.0
2019-Feb-12 10:28N 38°42' W 009°14'0 0.0
2019-Feb-12 09:59N 38°42' W 009°14'0 0.0
2019-Feb-12 09:30N 38°42' W 009°14'0 0.0
2019-Feb-12 08:58N 38°42' W 009°14'0 0.0
2019-Feb-12 08:29N 38°42' W 009°14'0 0.0
2019-Feb-12 07:59N 38°42' W 009°14'0 0.0
2019-Feb-12 07:26N 38°42' W 009°14'0 0.0
2019-Feb-12 07:00N 38°42' W 009°14'0 0.0
2019-Feb-12 06:30N 38°42' W 009°14'0 0.0
2019-Feb-12 06:00N 38°42' W 009°14'0 0.0
2019-Feb-12 05:30N 38°42' W 009°14'0 0.0
2019-Feb-12 05:00N 38°42' W 009°14'0 0.0
2019-Feb-12 04:28N 38°42' W 009°14'0 0.0
2019-Feb-12 03:47N 38°42' W 009°14'0 0.0
2019-Feb-12 03:30N 38°42' W 009°14'0 0.0
2019-Feb-12 03:01N 38°42' W 009°14'0 0.0
2019-Feb-12 02:25N 38°42' W 009°14'0 0.0
2019-Feb-12 01:59N 38°42' W 009°14'0 0.0
2019-Feb-12 01:30N 38°42' W 009°14'0 0.0
2019-Feb-12 00:58N 38°42' W 009°14'0 0.0
2019-Feb-12 00:29N 38°42' W 009°14'0 0.0
2019-Feb-11 23:57N 38°42' W 009°14'0 0.0
2019-Feb-11 23:29N 38°42' W 009°14'0 0.0
2019-Feb-11 23:00N 38°42' W 009°14'0 0.0
2019-Feb-11 22:31N 38°42' W 009°14'0 0.0
2019-Feb-11 21:59N 38°42' W 009°14'0 0.0
2019-Feb-11 21:28N 38°42' W 009°14'0 0.0
2019-Feb-11 20:57N 38°42' W 009°14'0 0.0
2019-Feb-11 20:29N 38°42' W 009°14'0 0.0
2019-Feb-11 19:54N 38°42' W 009°14'0 0.0
2019-Feb-11 19:28N 38°42' W 009°14'0 0.0
2019-Feb-11 19:00N 38°42' W 009°14'0 0.0
2019-Feb-11 18:30N 38°42' W 009°14'0 0.0
2019-Feb-11 17:59N 38°42' W 009°14'0 0.0
2019-Feb-11 17:25N 38°42' W 009°14'0 0.0
2019-Feb-11 16:54N 38°42' W 009°14'0 0.0
2019-Feb-11 16:27N 38°42' W 009°14'0 0.0
2019-Feb-11 16:01N 38°42' W 009°14'0 0.0
2019-Feb-11 15:30N 38°42' W 009°14'0 0.0
2019-Feb-11 15:00N 38°42' W 009°14'0 0.0
2019-Feb-11 14:30N 38°42' W 009°14'0 0.0
2019-Feb-11 14:00N 38°42' W 009°14'0 0.0
2019-Feb-11 13:26N 38°42' W 009°14'0 0.0
2019-Feb-11 13:00N 38°42' W 009°14'0 0.0
2019-Feb-11 12:30N 38°42' W 009°14'0 0.0
2019-Feb-11 11:58N 38°42' W 009°14'0 0.0
2019-Feb-11 11:29N 38°42' W 009°14'0 0.0
2019-Feb-11 11:00N 38°42' W 009°14'0 0.0
2019-Feb-11 10:30N 38°42' W 009°14'0 0.0
2019-Feb-11 09:55N 38°42' W 009°14'0 0.0
2019-Feb-11 09:26N 38°42' W 009°14'0 0.0
2019-Feb-11 08:58N 38°42' W 009°14'0 0.0
2019-Feb-11 08:29N 38°42' W 009°14'0 0.0
2019-Feb-11 08:00N 38°42' W 009°14'0 0.0
2019-Feb-11 07:29N 38°42' W 009°14'0 0.0
2019-Feb-11 07:00N 38°42' W 009°14'1 1.9
2019-Feb-11 06:30N 38°41' W 009°14'0 0.6
2019-Feb-11 05:59N 38°41' W 009°14'1 1.2
2019-Feb-11 05:26N 38°41' W 009°14'2 4.4
2019-Feb-11 05:00N 38°41' W 009°17'4 6.8
2019-Feb-11 04:27N 38°39' W 009°20'2 5.5
2019-Feb-11 04:00N 38°37' W 009°23'2 4.9
2019-Feb-11 03:30N 38°37' W 009°26'3 5.3
2019-Feb-11 03:00N 38°37' W 009°29'3 5.4
2019-Feb-11 02:30N 38°38' W 009°33'3 5.4
2019-Feb-11 02:00N 38°38' W 009°36'3 5.5
2019-Feb-11 01:30N 38°39' W 009°39'2 4.7
2019-Feb-11 01:00N 38°41' W 009°41'3 5.5
2019-Feb-11 00:31N 38°44' W 009°41'3 5.6
2019-Feb-11 00:00N 38°47' W 009°42'3 5.7
2019-Feb-10 23:31N 38°50' W 009°42'3 5.7
2019-Feb-10 23:00N 38°52' W 009°42'3 5.9
2019-Feb-10 22:31N 38°55' W 009°41'3 5.6
2019-Feb-10 22:00N 38°58' W 009°39'3 5.8
2019-Feb-10 21:30N 39°00' W 009°38'3 5.8
2019-Feb-10 21:00N 39°03' W 009°36'3 6.4
2019-Feb-10 20:30N 39°06' W 009°34'3 6.6
2019-Feb-10 20:00N 39°09' W 009°33'3 6.5
2019-Feb-10 19:31N 39°12' W 009°31'3 6.4
2019-Feb-10 18:58N 39°15' W 009°29'11 6.1
2019-Feb-10 17:15N 39°24' W 009°22'15 3.8
2019-Feb-10 13:18N 39°24' W 009°41'2 3.6
2019-Feb-10 12:37N 39°24' W 009°44'0 2.7
2019-Feb-10 12:31N 39°24' W 009°44'4 7.4
2019-Feb-10 12:00N 39°20' W 009°46'1 2.5
2019-Feb-10 11:29N 39°19' W 009°47'2 3.6
2019-Feb-10 10:56N 39°17' W 009°48'6 0.5
2019-Feb-09 22:43N 39°12' W 009°50'2 6.5
2019-Feb-09 22:21N 39°12' W 009°47'1 2.6
2019-Feb-09 21:58N 39°12' W 009°46'2 4.2
2019-Feb-09 21:30N 39°12' W 009°43'2 4.1
2019-Feb-09 21:00N 39°12' W 009°41'2 4.8
2019-Feb-09 20:29N 39°12' W 009°37'2 4.2
2019-Feb-09 20:01N 39°12' W 009°35'2 4.3
2019-Feb-09 19:30N 39°12' W 009°32'2 4.3
2019-Feb-09 18:58N 39°12' W 009°29'2 4.9
2019-Feb-09 18:30N 39°12' W 009°26'2 4.7
2019-Feb-09 18:00N 39°12' W 009°23'4 7.6
2019-Feb-09 17:30N 39°09' W 009°25'4 8.5
2019-Feb-09 17:00N 39°05' W 009°27'4 8.2
2019-Feb-09 16:30N 39°01' W 009°27'2 3.9
2019-Feb-09 16:00N 39°00' W 009°29'2 4.6
2019-Feb-09 15:30N 39°00' W 009°32'2 4.7
2019-Feb-09 15:00N 39°00' W 009°35'2 4.6
2019-Feb-09 14:30N 39°00' W 009°38'3 5.6
2019-Feb-09 14:00N 38°58' W 009°35'2 4.8
2019-Feb-09 13:30N 38°58' W 009°32'1 2.1
2019-Feb-09 13:00N 38°57' W 009°32'3 6.0
2019-Feb-09 12:30N 38°54' W 009°34'4 7.8
2019-Feb-09 12:01N 38°54' W 009°39'2 4.0
2019-Feb-09 11:30N 38°54' W 009°41'1 2.7
2019-Feb-09 11:00N 38°55' W 009°40'1 1.5
2019-Feb-09 10:30N 38°56' W 009°39'2 5.0
2019-Feb-09 10:01N 38°54' W 009°42'3 6.3
2019-Feb-09 09:31N 38°57' W 009°40'3 6.0
2019-Feb-09 09:00N 39°00' W 009°41'2 4.7
2019-Feb-09 08:30N 39°00' W 009°44'2 4.5
2019-Feb-09 08:00N 38°60' W 009°47'2 4.7
2019-Feb-09 07:30N 39°00' W 009°50'2 4.6
2019-Feb-09 07:00N 39°00' W 009°53'2 4.4
2019-Feb-09 06:30N 38°60' W 009°56'2 3.9
2019-Feb-09 06:00N 39°00' W 009°58'3 4.1
2019-Feb-09 05:20N 39°00' W 010°02'2 3.9
2019-Feb-09 04:45N 39°00' W 010°05'0 0.7
2019-Feb-09 04:30N 39°00' W 010°05'2 4.9
2019-Feb-09 04:00N 39°00' W 010°08'5 3.4
2019-Feb-09 02:39N 39°00' W 010°14'13 5.0
2019-Feb-09 00:04N 38°48' W 010°08'1 6.6
2019-Feb-08 23:50N 38°48' W 010°06'1 2.7
2019-Feb-08 23:26N 38°48' W 010°05'2 4.9
2019-Feb-08 23:00N 38°48' W 010°02'1 1.6
2019-Feb-08 22:30N 38°48' W 010°01'2 3.9
2019-Feb-08 22:01N 38°48' W 009°59'2 4.0
2019-Feb-08 21:30N 38°48' W 009°56'2 4.8
2019-Feb-08 21:00N 38°48' W 009°53'2 4.7
2019-Feb-08 20:30N 38°48' W 009°50'3 5.2
2019-Feb-08 20:00N 38°48' W 009°47'2 4.4
2019-Feb-08 19:31N 38°48' W 009°44'2 4.5
2019-Feb-08 19:00N 38°48' W 009°41'2 4.5
2019-Feb-08 18:30N 38°48' W 009°38'2 4.7
2019-Feb-08 18:00N 38°48' W 009°35'2 4.6
2019-Feb-08 17:30N 38°48' W 009°32'3 7.0
2019-Feb-08 17:01N 38°46' W 009°36'1 2.9
2019-Feb-08 16:30N 38°47' W 009°37'2 3.2
2019-Feb-08 16:01N 38°48' W 009°39'1 2.4
2019-Feb-08 15:30N 38°47' W 009°38'4 7.1
2019-Feb-08 15:01N 38°44' W 009°35'4 7.5
2019-Feb-08 14:31N 38°41' W 009°34'4 7.3
2019-Feb-08 14:00N 38°37' W 009°32'4 7.2
2019-Feb-08 13:31N 38°34' W 009°30'3 6.6
2019-Feb-08 13:00N 38°31' W 009°28'1 2.6
2019-Feb-08 12:30N 38°30' W 009°27'1 3.0
2019-Feb-08 12:00N 38°29' W 009°25'3 5.7
2019-Feb-08 11:30N 38°32' W 009°26'4 7.5
2019-Feb-08 11:01N 38°33' W 009°22'4 7.6
2019-Feb-08 10:28N 38°35' W 009°17'0 0.6
2019-Feb-08 09:59N 38°35' W 009°18'0 0.7
2019-Feb-08 09:30N 38°35' W 009°17'3 5.2
2019-Feb-08 09:00N 38°34' W 009°15'1 2.2
2019-Feb-08 08:28N 38°34' W 009°16'2 4.3
2019-Feb-08 08:00N 38°36' W 009°14'2 4.6
2019-Feb-08 07:30N 38°36' W 009°17'3 5.5
2019-Feb-08 06:59N 38°36' W 009°21'3 5.9
2019-Feb-08 06:30N 38°36' W 009°24'2 4.6
2019-Feb-08 06:01N 38°36' W 009°27'2 4.6
2019-Feb-08 05:30N 38°36' W 009°30'2 3.9
2019-Feb-08 05:01N 38°36' W 009°33'2 4.3
2019-Feb-08 04:30N 38°36' W 009°35'2 4.1
2019-Feb-08 04:00N 38°36' W 009°38'2 4.7
2019-Feb-08 03:30N 38°36' W 009°41'2 4.5
2019-Feb-08 03:01N 38°36' W 009°44'2 4.5
2019-Feb-08 02:31N 38°36' W 009°47'2 3.7
2019-Feb-08 02:00N 38°35' W 009°49'1 1.5
2019-Feb-08 01:30N 38°36' W 009°49'3 6.8
2019-Feb-08 01:00N 38°33' W 009°46'3 6.7
2019-Feb-08 00:30N 38°31' W 009°42'3 6.7
2019-Feb-08 00:00N 38°29' W 009°39'4 7.1
2019-Feb-07 23:30N 38°27' W 009°35'4 7.1
2019-Feb-07 22:56N 38°25' W 009°31'2 4.0
2019-Feb-07 22:30N 38°24' W 009°29'2 4.8
2019-Feb-07 22:00N 38°24' W 009°26'2 4.7
2019-Feb-07 21:30N 38°24' W 009°23'2 4.8
2019-Feb-07 21:00N 38°24' W 009°20'2 4.1
2019-Feb-07 20:29N 38°24' W 009°17'2 4.6
2019-Feb-07 20:00N 38°24' W 009°14'2 3.5
2019-Feb-07 19:30N 38°24' W 009°12'2 4.5
2019-Feb-07 19:00N 38°24' W 009°09'2 4.7
2019-Feb-07 18:29N 38°24' W 009°06'2 4.7
2019-Feb-07 18:00N 38°24' W 009°03'2 4.9
2019-Feb-07 17:30N 38°24' W 009°00'3 5.0
2019-Feb-07 16:59N 38°24' W 008°57'1 1.4
2019-Feb-07 16:30N 38°24' W 008°56'3 5.4
2019-Feb-07 15:55N 38°24' W 008°52'1 2.3
2019-Feb-07 15:29N 38°23' W 008°51'4 8.4
2019-Feb-07 15:00N 38°21' W 008°55'3 6.3
2019-Feb-07 14:31N 38°19' W 008°58'2 3.3
2019-Feb-07 14:00N 38°19' W 008°60'3 6.9
2019-Feb-07 13:30N 38°17' W 008°56'4 7.8
2019-Feb-07 13:00N 38°15' W 008°52'4 7.7
2019-Feb-07 12:30N 38°13' W 008°48'2 4.6
2019-Feb-07 12:00N 38°11' W 008°49'1 3.0
2019-Feb-07 11:30N 38°09' W 008°49'1 1.0
2019-Feb-07 11:01N 38°10' W 008°49'4 6.9
2019-Feb-07 10:29N 38°13' W 008°52'4 7.9
2019-Feb-07 10:00N 38°14' W 008°56'2 3.9
2019-Feb-07 09:31N 38°14' W 008°59'1 2.9
2019-Feb-07 09:00N 38°13' W 009°00'0 0.8
2019-Feb-07 08:30N 38°13' W 009°00'3 5.3
2019-Feb-07 08:00N 38°15' W 008°59'2 3.2
2019-Feb-07 07:30N 38°14' W 008°60'3 5.4
2019-Feb-07 07:01N 38°16' W 008°57'4 7.6
2019-Feb-07 06:30N 38°14' W 008°53'1 2.5
2019-Feb-07 06:00N 38°13' W 008°52'2 4.7
2019-Feb-07 05:30N 38°13' W 008°55'2 4.2
2019-Feb-07 05:00N 38°13' W 008°57'2 4.3
2019-Feb-07 04:30N 38°13' W 009°00'2 4.4
2019-Feb-07 04:00N 38°13' W 009°03'2 4.8
2019-Feb-07 03:30N 38°13' W 009°06'2 4.6
2019-Feb-07 03:00N 38°13' W 009°09'2 3.5
2019-Feb-07 02:29N 38°13' W 009°11'1 2.7
2019-Feb-07 02:00N 38°13' W 009°13'2 3.3
2019-Feb-07 01:30N 38°13' W 009°15'4 7.5
2019-Feb-07 01:00N 38°09' W 009°15'3 5.4
2019-Feb-07 00:30N 38°07' W 009°16'4 7.4
2019-Feb-07 00:00N 38°03' W 009°16'2 4.0
2019-Feb-06 23:30N 38°01' W 009°17'2 4.9
2019-Feb-06 23:00N 38°01' W 009°14'2 4.8
2019-Feb-06 22:30N 38°01' W 009°11'2 4.6
2019-Feb-06 22:00N 38°01' W 009°08'2 4.1
2019-Feb-06 21:31N 38°01' W 009°05'2 4.4
2019-Feb-06 21:00N 38°01' W 009°02'2 4.7
2019-Feb-06 20:31N 38°01' W 008°60'2 4.9
2019-Feb-06 20:01N 38°01' W 008°56'2 4.5
2019-Feb-06 19:30N 38°01' W 008°54'2 3.5
2019-Feb-06 19:01N 37°59' W 008°54'4 7.5
2019-Feb-06 18:30N 37°56' W 008°54'4 7.7
2019-Feb-06 18:00N 37°52' W 008°52'3 6.8
2019-Feb-06 17:31N 37°49' W 008°50'2 4.7
2019-Feb-06 17:01N 37°49' W 008°53'2 4.8
2019-Feb-06 16:31N 37°49' W 008°56'2 3.9
2019-Feb-06 16:00N 37°49' W 008°59'1 1.4
2019-Feb-06 15:31N 37°49' W 008°59'1 2.3
2019-Feb-06 15:00N 37°47' W 008°58'2 3.1
2019-Feb-06 14:30N 37°46' W 008°58'2 3.8
2019-Feb-06 14:00N 37°44' W 008°58'4 7.0
2019-Feb-06 13:30N 37°47' W 008°58'4 8.1
2019-Feb-06 13:00N 37°51' W 009°00'2 4.5
2019-Feb-06 12:30N 37°53' W 009°01'2 3.2
2019-Feb-06 12:01N 37°55' W 009°01'1 1.3
2019-Feb-06 11:30N 37°56' W 009°01'4 7.5
2019-Feb-06 11:00N 37°52' W 009°01'4 7.7
2019-Feb-06 10:30N 37°48' W 008°60'2 4.5
2019-Feb-06 10:00N 37°47' W 009°03'1 2.7
2019-Feb-06 09:30N 37°49' W 009°03'2 3.0
2019-Feb-06 09:00N 37°50' W 009°03'0 0.3
2019-Feb-06 08:30N 37°50' W 009°03'2 3.0
2019-Feb-06 08:00N 37°49' W 009°02'1 2.6
2019-Feb-06 07:30N 37°49' W 009°04'2 3.8
2019-Feb-06 07:00N 37°49' W 009°06'2 3.1
2019-Feb-06 06:30N 37°49' W 009°08'2 4.2
2019-Feb-06 06:00N 37°49' W 009°11'2 5.0
2019-Feb-06 05:30N 37°49' W 009°14'2 3.5
2019-Feb-06 05:01N 37°49' W 009°16'1 2.4
2019-Feb-06 04:30N 37°48' W 009°17'4 8.3
2019-Feb-06 04:00N 37°44' W 009°17'5 8.1
2019-Feb-06 03:27N 37°39' W 009°17'2 5.4
2019-Feb-06 03:00N 37°37' W 009°17'2 4.8
2019-Feb-06 02:30N 37°37' W 009°14'2 4.0
2019-Feb-06 01:57N 37°37' W 009°11'1 2.3
2019-Feb-06 01:30N 37°37' W 009°10'1 2.9
2019-Feb-06 01:00N 37°37' W 009°08'2 4.9
2019-Feb-06 00:30N 37°37' W 009°05'2 4.5
2019-Feb-06 00:00N 37°37' W 009°02'2 4.0
2019-Feb-05 23:30N 37°37' W 008°60'3 5.1
2019-Feb-05 23:00N 37°37' W 008°56'2 4.7
2019-Feb-05 22:30N 37°37' W 008°53'3 5.2
2019-Feb-05 22:00N 37°37' W 008°50'12 7.0
2019-Feb-05 20:18N 37°25' W 008°50'1 4.6
2019-Feb-05 20:00N 37°25' W 008°52'1 2.2
2019-Feb-05 19:31N 37°25' W 008°53'7 4.8
2019-Feb-05 18:01N 37°25' W 009°02'0 0.5
2019-Feb-05 18:00N 37°25' W 009°02'3 4.0
2019-Feb-05 17:22N 37°25' W 008°59'1 2.6
2019-Feb-05 16:59N 37°26' W 008°59'3 3.7
2019-Feb-05 16:16N 37°29' W 008°59'9 4.3
2019-Feb-05 14:12N 37°25' W 009°09'13 5.9
2019-Feb-05 12:02N 37°13' W 009°14'0 1.4
2019-Feb-05 12:00N 37°13' W 009°14'2 4.3
2019-Feb-05 11:28N 37°13' W 009°11'2 4.4
2019-Feb-05 10:54N 37°13' W 009°08'2 4.5
2019-Feb-05 10:22N 37°13' W 009°05'2 3.3
2019-Feb-05 09:38N 37°15' W 009°03'26 1.6
2019-Feb-04 17:26N 36°52' W 008°48'1 0.4
2019-Feb-04 15:55N 36°52' W 008°48'4 7.6
2019-Feb-04 15:25N 36°53' W 008°43'3 7.4
2019-Feb-04 15:00N 36°55' W 008°40'4 7.4
2019-Feb-04 14:30N 36°57' W 008°37'3 6.9
2019-Feb-04 14:00N 37°00' W 008°35'4 7.1
2019-Feb-04 13:28N 36°59' W 008°39'7 3.3
2019-Feb-04 11:24N 36°57' W 008°47'3 7.4
2019-Feb-04 10:58N 36°56' W 008°43'2 3.2
2019-Feb-04 10:22N 36°58' W 008°42'11 7.4
2019-Feb-04 08:50N 36°57' W 008°56'4 4.8
2019-Feb-04 08:05N 36°58' W 008°60'18 3.4
2019-Feb-04 02:39N 36°42' W 008°49'1 3.6
2019-Feb-04 02:20N 36°42' W 008°48'3 3.9
2019-Feb-04 01:32N 36°45' W 008°48'  

Dump ship's entire track history